sensor_id;sensor_type;location;lat;lon;timestamp;P1;durP1;ratioP1;P2;durP2;ratioP2
22240;SDS011;11289;52.524;13.694;2023-12-20T00:01:37;9.55;;;6.38;;
22240;SDS011;11289;52.524;13.694;2023-12-20T00:04:03;9.27;;;6.47;;
22240;SDS011;11289;52.524;13.694;2023-12-20T00:06:29;7.63;;;5.70;;
22240;SDS011;11289;52.524;13.694;2023-12-20T00:08:56;9.00;;;6.93;;
22240;SDS011;11289;52.524;13.694;2023-12-20T00:11:23;9.52;;;6.60;;
22240;SDS011;11289;52.524;13.694;2023-12-20T00:13:49;9.63;;;6.25;;
22240;SDS011;11289;52.524;13.694;2023-12-20T00:16:15;7.55;;;5.57;;
22240;SDS011;11289;52.524;13.694;2023-12-20T00:18:41;6.93;;;5.35;;
22240;SDS011;11289;52.524;13.694;2023-12-20T00:21:07;8.35;;;6.28;;
22240;SDS011;11289;52.524;13.694;2023-12-20T00:23:33;7.75;;;5.63;;
22240;SDS011;11289;52.524;13.694;2023-12-20T00:25:59;8.35;;;5.72;;
22240;SDS011;11289;52.524;13.694;2023-12-20T00:28:25;6.95;;;5.40;;
22240;SDS011;11289;52.524;13.694;2023-12-20T00:30:51;9.18;;;5.82;;
22240;SDS011;11289;52.524;13.694;2023-12-20T00:33:17;9.27;;;6.45;;
22240;SDS011;11289;52.524;13.694;2023-12-20T00:35:43;7.40;;;5.63;;
22240;SDS011;11289;52.524;13.694;2023-12-20T00:38:09;10.00;;;5.40;;
22240;SDS011;11289;52.524;13.694;2023-12-20T00:40:35;7.60;;;5.55;;
22240;SDS011;11289;52.524;13.694;2023-12-20T00:43:01;9.80;;;5.63;;
22240;SDS011;11289;52.524;13.694;2023-12-20T00:45:27;8.90;;;5.82;;
22240;SDS011;11289;52.524;13.694;2023-12-20T00:47:53;7.60;;;5.70;;
22240;SDS011;11289;52.524;13.694;2023-12-20T00:50:19;7.25;;;5.07;;
22240;SDS011;11289;52.524;13.694;2023-12-20T00:52:47;7.20;;;5.35;;
22240;SDS011;11289;52.524;13.694;2023-12-20T00:55:13;6.10;;;4.80;;
22240;SDS011;11289;52.524;13.694;2023-12-20T00:57:39;7.93;;;5.28;;
22240;SDS011;11289;52.524;13.694;2023-12-20T01:00:05;7.78;;;5.65;;
22240;SDS011;11289;52.524;13.694;2023-12-20T01:02:32;7.72;;;5.45;;
22240;SDS011;11289;52.524;13.694;2023-12-20T01:04:58;6.25;;;4.57;;
22240;SDS011;11289;52.524;13.694;2023-12-20T01:07:23;5.82;;;4.68;;
22240;SDS011;11289;52.524;13.694;2023-12-20T01:09:49;6.72;;;4.95;;
22240;SDS011;11289;52.524;13.694;2023-12-20T01:12:15;7.93;;;5.47;;
22240;SDS011;11289;52.524;13.694;2023-12-20T01:14:41;6.55;;;5.18;;
22240;SDS011;11289;52.524;13.694;2023-12-20T01:17:07;6.70;;;4.72;;
22240;SDS011;11289;52.524;13.694;2023-12-20T01:19:33;6.57;;;4.68;;
22240;SDS011;11289;52.524;13.694;2023-12-20T01:21:59;6.07;;;4.65;;
22240;SDS011;11289;52.524;13.694;2023-12-20T01:24:25;6.80;;;4.70;;
22240;SDS011;11289;52.524;13.694;2023-12-20T01:26:51;5.68;;;4.72;;
22240;SDS011;11289;52.524;13.694;2023-12-20T01:29:17;6.82;;;4.38;;
22240;SDS011;11289;52.524;13.694;2023-12-20T01:31:43;6.65;;;4.55;;
22240;SDS011;11289;52.524;13.694;2023-12-20T01:34:09;8.18;;;5.55;;
22240;SDS011;11289;52.524;13.694;2023-12-20T01:36:35;6.32;;;4.50;;
22240;SDS011;11289;52.524;13.694;2023-12-20T01:39:01;7.07;;;4.90;;
22240;SDS011;11289;52.524;13.694;2023-12-20T01:41:27;5.80;;;4.43;;
22240;SDS011;11289;52.524;13.694;2023-12-20T01:43:53;7.93;;;5.07;;
22240;SDS011;11289;52.524;13.694;2023-12-20T01:46:19;6.45;;;4.72;;
22240;SDS011;11289;52.524;13.694;2023-12-20T01:48:46;6.72;;;4.93;;
22240;SDS011;11289;52.524;13.694;2023-12-20T01:51:13;5.43;;;4.32;;
22240;SDS011;11289;52.524;13.694;2023-12-20T01:53:39;8.13;;;5.05;;
22240;SDS011;11289;52.524;13.694;2023-12-20T01:56:06;6.72;;;4.93;;
22240;SDS011;11289;52.524;13.694;2023-12-20T01:58:33;6.57;;;4.78;;
22240;SDS011;11289;52.524;13.694;2023-12-20T02:00:59;7.38;;;4.57;;
22240;SDS011;11289;52.524;13.694;2023-12-20T02:03:25;5.95;;;4.40;;
22240;SDS011;11289;52.524;13.694;2023-12-20T02:05:51;6.43;;;4.55;;
22240;SDS011;11289;52.524;13.694;2023-12-20T02:08:18;5.53;;;4.07;;
22240;SDS011;11289;52.524;13.694;2023-12-20T02:10:44;6.35;;;4.13;;
22240;SDS011;11289;52.524;13.694;2023-12-20T02:13:10;4.95;;;3.67;;
22240;SDS011;11289;52.524;13.694;2023-12-20T02:15:36;5.25;;;3.42;;
22240;SDS011;11289;52.524;13.694;2023-12-20T02:18:03;4.30;;;3.30;;
22240;SDS011;11289;52.524;13.694;2023-12-20T02:20:29;4.57;;;3.40;;
22240;SDS011;11289;52.524;13.694;2023-12-20T02:22:56;4.22;;;2.78;;
22240;SDS011;11289;52.524;13.694;2023-12-20T02:25:22;4.40;;;2.42;;
22240;SDS011;11289;52.524;13.694;2023-12-20T02:27:48;3.95;;;3.00;;
22240;SDS011;11289;52.524;13.694;2023-12-20T02:30:15;5.65;;;2.75;;
22240;SDS011;11289;52.524;13.694;2023-12-20T02:32:41;3.80;;;2.97;;
22240;SDS011;11289;52.524;13.694;2023-12-20T02:35:07;4.53;;;2.30;;
22240;SDS011;11289;52.524;13.694;2023-12-20T02:37:33;4.70;;;2.67;;
22240;SDS011;11289;52.524;13.694;2023-12-20T02:39:59;3.38;;;2.33;;
22240;SDS011;11289;52.524;13.694;2023-12-20T02:42:25;4.53;;;2.65;;
22240;SDS011;11289;52.524;13.694;2023-12-20T02:44:51;5.38;;;2.42;;
22240;SDS011;11289;52.524;13.694;2023-12-20T02:47:17;3.90;;;2.60;;
22240;SDS011;11289;52.524;13.694;2023-12-20T02:49:43;4.82;;;1.90;;
22240;SDS011;11289;52.524;13.694;2023-12-20T02:52:09;5.35;;;2.13;;
22240;SDS011;11289;52.524;13.694;2023-12-20T02:54:35;4.13;;;1.95;;
22240;SDS011;11289;52.524;13.694;2023-12-20T02:57:01;3.97;;;1.90;;
22240;SDS011;11289;52.524;13.694;2023-12-20T02:59:27;4.93;;;1.73;;
22240;SDS011;11289;52.524;13.694;2023-12-20T03:01:53;3.97;;;1.80;;
22240;SDS011;11289;52.524;13.694;2023-12-20T03:04:19;2.83;;;1.60;;
22240;SDS011;11289;52.524;13.694;2023-12-20T03:06:45;4.65;;;1.88;;
22240;SDS011;11289;52.524;13.694;2023-12-20T03:09:11;4.22;;;2.10;;
22240;SDS011;11289;52.524;13.694;2023-12-20T03:11:37;4.97;;;1.67;;
22240;SDS011;11289;52.524;13.694;2023-12-20T03:14:02;3.10;;;1.98;;
22240;SDS011;11289;52.524;13.694;2023-12-20T03:16:28;6.07;;;1.85;;
22240;SDS011;11289;52.524;13.694;2023-12-20T03:18:54;4.07;;;1.92;;
22240;SDS011;11289;52.524;13.694;2023-12-20T03:21:20;3.65;;;1.83;;
22240;SDS011;11289;52.524;13.694;2023-12-20T03:23:46;4.30;;;2.17;;
22240;SDS011;11289;52.524;13.694;2023-12-20T03:26:12;4.43;;;1.75;;
22240;SDS011;11289;52.524;13.694;2023-12-20T03:28:38;5.47;;;2.47;;
22240;SDS011;11289;52.524;13.694;2023-12-20T03:31:04;6.05;;;2.25;;
22240;SDS011;11289;52.524;13.694;2023-12-20T03:33:30;3.55;;;1.77;;
22240;SDS011;11289;52.524;13.694;2023-12-20T03:35:56;6.43;;;2.00;;
22240;SDS011;11289;52.524;13.694;2023-12-20T03:38:22;5.03;;;1.70;;
22240;SDS011;11289;52.524;13.694;2023-12-20T03:40:51;3.95;;;1.67;;
22240;SDS011;11289;52.524;13.694;2023-12-20T03:43:17;3.30;;;1.33;;
22240;SDS011;11289;52.524;13.694;2023-12-20T03:45:43;4.47;;;1.35;;
22240;SDS011;11289;52.524;13.694;2023-12-20T03:48:09;6.05;;;1.70;;
22240;SDS011;11289;52.524;13.694;2023-12-20T03:50:35;5.90;;;1.83;;
22240;SDS011;11289;52.524;13.694;2023-12-20T03:53:01;3.65;;;1.63;;
22240;SDS011;11289;52.524;13.694;2023-12-20T03:55:27;3.15;;;1.58;;
22240;SDS011;11289;52.524;13.694;2023-12-20T03:57:53;5.20;;;1.92;;
22240;SDS011;11289;52.524;13.694;2023-12-20T04:00:19;6.55;;;1.60;;
22240;SDS011;11289;52.524;13.694;2023-12-20T04:02:45;7.32;;;2.05;;
22240;SDS011;11289;52.524;13.694;2023-12-20T04:05:11;10.75;;;1.63;;
22240;SDS011;11289;52.524;13.694;2023-12-20T04:07:37;4.40;;;1.50;;
22240;SDS011;11289;52.524;13.694;2023-12-20T04:10:04;5.15;;;1.85;;
22240;SDS011;11289;52.524;13.694;2023-12-20T04:12:30;5.18;;;1.80;;
22240;SDS011;11289;52.524;13.694;2023-12-20T04:14:57;5.05;;;1.88;;
22240;SDS011;11289;52.524;13.694;2023-12-20T04:17:23;6.22;;;1.50;;
22240;SDS011;11289;52.524;13.694;2023-12-20T04:19:49;9.63;;;1.58;;
22240;SDS011;11289;52.524;13.694;2023-12-20T04:22:16;6.63;;;1.63;;
22240;SDS011;11289;52.524;13.694;2023-12-20T04:24:43;8.32;;;1.33;;
22240;SDS011;11289;52.524;13.694;2023-12-20T04:27:09;5.90;;;1.30;;
22240;SDS011;11289;52.524;13.694;2023-12-20T04:29:35;7.15;;;2.08;;
22240;SDS011;11289;52.524;13.694;2023-12-20T04:32:01;5.40;;;1.65;;
22240;SDS011;11289;52.524;13.694;2023-12-20T04:34:27;5.78;;;1.95;;
22240;SDS011;11289;52.524;13.694;2023-12-20T04:36:53;7.97;;;1.80;;
22240;SDS011;11289;52.524;13.694;2023-12-20T04:39:19;7.20;;;1.30;;
22240;SDS011;11289;52.524;13.694;2023-12-20T04:41:45;3.65;;;1.33;;
22240;SDS011;11289;52.524;13.694;2023-12-20T04:44:13;6.32;;;1.80;;
22240;SDS011;11289;52.524;13.694;2023-12-20T04:46:39;6.30;;;1.50;;
22240;SDS011;11289;52.524;13.694;2023-12-20T04:49:05;8.23;;;1.67;;
22240;SDS011;11289;52.524;13.694;2023-12-20T04:51:34;5.10;;;1.63;;
22240;SDS011;11289;52.524;13.694;2023-12-20T04:54:01;6.18;;;1.52;;
22240;SDS011;11289;52.524;13.694;2023-12-20T04:56:27;8.23;;;1.70;;
22240;SDS011;11289;52.524;13.694;2023-12-20T04:58:53;8.52;;;1.70;;
22240;SDS011;11289;52.524;13.694;2023-12-20T05:01:19;10.35;;;1.48;;
22240;SDS011;11289;52.524;13.694;2023-12-20T05:03:46;4.03;;;1.50;;
22240;SDS011;11289;52.524;13.694;2023-12-20T05:06:12;6.13;;;1.40;;
22240;SDS011;11289;52.524;13.694;2023-12-20T05:08:38;6.80;;;1.70;;
22240;SDS011;11289;52.524;13.694;2023-12-20T05:11:04;7.88;;;1.40;;
22240;SDS011;11289;52.524;13.694;2023-12-20T05:13:30;7.90;;;1.85;;
22240;SDS011;11289;52.524;13.694;2023-12-20T05:15:56;7.13;;;1.67;;
22240;SDS011;11289;52.524;13.694;2023-12-20T05:18:22;7.43;;;1.33;;
22240;SDS011;11289;52.524;13.694;2023-12-20T05:20:49;13.43;;;1.85;;
22240;SDS011;11289;52.524;13.694;2023-12-20T05:23:16;5.50;;;1.67;;
22240;SDS011;11289;52.524;13.694;2023-12-20T05:25:43;11.70;;;1.38;;
22240;SDS011;11289;52.524;13.694;2023-12-20T05:28:09;8.23;;;1.40;;
22240;SDS011;11289;52.524;13.694;2023-12-20T05:30:34;8.02;;;2.17;;
22240;SDS011;11289;52.524;13.694;2023-12-20T05:33:00;7.15;;;1.42;;
22240;SDS011;11289;52.524;13.694;2023-12-20T05:35:26;5.93;;;1.55;;
22240;SDS011;11289;52.524;13.694;2023-12-20T05:37:52;17.00;;;2.05;;
22240;SDS011;11289;52.524;13.694;2023-12-20T05:40:18;11.43;;;1.77;;
22240;SDS011;11289;52.524;13.694;2023-12-20T05:42:44;12.00;;;1.48;;
22240;SDS011;11289;52.524;13.694;2023-12-20T05:45:10;8.73;;;1.52;;
22240;SDS011;11289;52.524;13.694;2023-12-20T05:47:36;6.07;;;1.67;;
22240;SDS011;11289;52.524;13.694;2023-12-20T05:50:02;11.55;;;1.77;;
22240;SDS011;11289;52.524;13.694;2023-12-20T05:52:29;11.27;;;1.98;;
22240;SDS011;11289;52.524;13.694;2023-12-20T05:54:55;6.75;;;2.20;;
22240;SDS011;11289;52.524;13.694;2023-12-20T05:57:23;8.73;;;1.63;;
22240;SDS011;11289;52.524;13.694;2023-12-20T05:59:49;14.23;;;2.17;;
22240;SDS011;11289;52.524;13.694;2023-12-20T06:02:15;9.02;;;2.20;;
22240;SDS011;11289;52.524;13.694;2023-12-20T06:04:44;12.02;;;1.75;;
22240;SDS011;11289;52.524;13.694;2023-12-20T06:07:11;14.95;;;2.53;;
22240;SDS011;11289;52.524;13.694;2023-12-20T06:09:38;8.25;;;1.70;;
22240;SDS011;11289;52.524;13.694;2023-12-20T06:12:04;8.77;;;1.63;;
22240;SDS011;11289;52.524;13.694;2023-12-20T06:14:30;6.85;;;1.92;;
22240;SDS011;11289;52.524;13.694;2023-12-20T06:16:57;8.70;;;1.90;;
22240;SDS011;11289;52.524;13.694;2023-12-20T06:19:23;11.85;;;2.20;;
22240;SDS011;11289;52.524;13.694;2023-12-20T06:21:49;4.85;;;1.50;;
22240;SDS011;11289;52.524;13.694;2023-12-20T06:24:15;4.10;;;1.35;;
22240;SDS011;11289;52.524;13.694;2023-12-20T06:26:41;6.82;;;1.90;;
22240;SDS011;11289;52.524;13.694;2023-12-20T06:29:06;6.88;;;1.35;;
22240;SDS011;11289;52.524;13.694;2023-12-20T06:31:32;5.38;;;1.30;;
22240;SDS011;11289;52.524;13.694;2023-12-20T06:33:59;11.50;;;1.60;;
22240;SDS011;11289;52.524;13.694;2023-12-20T06:36:28;11.02;;;1.67;;
22240;SDS011;11289;52.524;13.694;2023-12-20T06:38:54;9.63;;;1.88;;
22240;SDS011;11289;52.524;13.694;2023-12-20T06:41:20;7.45;;;1.50;;
22240;SDS011;11289;52.524;13.694;2023-12-20T06:43:46;8.80;;;1.92;;
22240;SDS011;11289;52.524;13.694;2023-12-20T06:46:12;10.10;;;1.85;;
22240;SDS011;11289;52.524;13.694;2023-12-20T06:48:39;6.93;;;1.55;;
22240;SDS011;11289;52.524;13.694;2023-12-20T06:51:05;6.05;;;1.50;;
22240;SDS011;11289;52.524;13.694;2023-12-20T06:53:31;6.43;;;1.40;;
22240;SDS011;11289;52.524;13.694;2023-12-20T06:55:57;7.20;;;1.50;;
22240;SDS011;11289;52.524;13.694;2023-12-20T06:58:23;7.40;;;1.60;;
22240;SDS011;11289;52.524;13.694;2023-12-20T07:00:50;8.55;;;2.33;;
22240;SDS011;11289;52.524;13.694;2023-12-20T07:03:17;10.25;;;2.30;;
22240;SDS011;11289;52.524;13.694;2023-12-20T07:05:43;10.25;;;1.92;;
22240;SDS011;11289;52.524;13.694;2023-12-20T07:08:09;6.78;;;1.92;;
22240;SDS011;11289;52.524;13.694;2023-12-20T07:10:36;7.53;;;1.65;;
22240;SDS011;11289;52.524;13.694;2023-12-20T07:13:02;7.55;;;2.15;;
22240;SDS011;11289;52.524;13.694;2023-12-20T07:15:28;7.78;;;2.60;;
22240;SDS011;11289;52.524;13.694;2023-12-20T07:17:55;7.75;;;1.67;;
22240;SDS011;11289;52.524;13.694;2023-12-20T07:20:21;7.85;;;1.90;;
22240;SDS011;11289;52.524;13.694;2023-12-20T07:22:47;6.57;;;1.80;;
22240;SDS011;11289;52.524;13.694;2023-12-20T07:25:13;7.60;;;1.83;;
22240;SDS011;11289;52.524;13.694;2023-12-20T07:27:38;10.63;;;2.65;;
22240;SDS011;11289;52.524;13.694;2023-12-20T07:30:05;7.93;;;1.92;;
22240;SDS011;11289;52.524;13.694;2023-12-20T07:32:31;10.60;;;2.20;;
22240;SDS011;11289;52.524;13.694;2023-12-20T07:34:57;6.53;;;1.58;;
22240;SDS011;11289;52.524;13.694;2023-12-20T07:37:23;9.32;;;1.73;;
22240;SDS011;11289;52.524;13.694;2023-12-20T07:39:49;8.77;;;1.98;;
22240;SDS011;11289;52.524;13.694;2023-12-20T07:42:15;7.25;;;2.03;;
22240;SDS011;11289;52.524;13.694;2023-12-20T07:44:41;6.20;;;1.85;;
22240;SDS011;11289;52.524;13.694;2023-12-20T07:47:07;8.25;;;2.35;;
22240;SDS011;11289;52.524;13.694;2023-12-20T07:49:33;6.40;;;2.10;;
22240;SDS011;11289;52.524;13.694;2023-12-20T07:51:59;9.13;;;2.10;;
22240;SDS011;11289;52.524;13.694;2023-12-20T07:54:25;10.88;;;2.22;;
22240;SDS011;11289;52.524;13.694;2023-12-20T07:56:51;10.32;;;2.28;;
22240;SDS011;11289;52.524;13.694;2023-12-20T07:59:17;9.57;;;2.33;;
22240;SDS011;11289;52.524;13.694;2023-12-20T08:01:43;13.10;;;2.22;;
22240;SDS011;11289;52.524;13.694;2023-12-20T08:04:09;8.13;;;2.38;;
22240;SDS011;11289;52.524;13.694;2023-12-20T08:06:35;8.25;;;1.98;;
22240;SDS011;11289;52.524;13.694;2023-12-20T08:09:01;13.68;;;2.17;;
22240;SDS011;11289;52.524;13.694;2023-12-20T08:11:28;7.88;;;1.23;;
22240;SDS011;11289;52.524;13.694;2023-12-20T08:13:54;12.65;;;1.50;;
22240;SDS011;11289;52.524;13.694;2023-12-20T08:16:20;7.38;;;1.20;;
22240;SDS011;11289;52.524;13.694;2023-12-20T08:18:46;7.65;;;1.45;;
22240;SDS011;11289;52.524;13.694;2023-12-20T08:21:13;5.47;;;1.17;;
22240;SDS011;11289;52.524;13.694;2023-12-20T08:23:39;12.18;;;1.20;;
22240;SDS011;11289;52.524;13.694;2023-12-20T08:26:05;4.25;;;1.40;;
22240;SDS011;11289;52.524;13.694;2023-12-20T08:28:32;6.30;;;1.58;;
22240;SDS011;11289;52.524;13.694;2023-12-20T08:30:58;10.70;;;1.70;;
22240;SDS011;11289;52.524;13.694;2023-12-20T08:33:24;6.75;;;1.55;;
22240;SDS011;11289;52.524;13.694;2023-12-20T08:35:50;6.68;;;1.98;;
22240;SDS011;11289;52.524;13.694;2023-12-20T08:38:16;9.55;;;1.85;;
22240;SDS011;11289;52.524;13.694;2023-12-20T08:40:43;5.65;;;1.73;;
22240;SDS011;11289;52.524;13.694;2023-12-20T08:43:09;9.13;;;1.98;;
22240;SDS011;11289;52.524;13.694;2023-12-20T08:45:36;9.15;;;2.10;;
22240;SDS011;11289;52.524;13.694;2023-12-20T08:48:02;6.95;;;1.70;;
22240;SDS011;11289;52.524;13.694;2023-12-20T08:50:28;6.15;;;1.95;;
22240;SDS011;11289;52.524;13.694;2023-12-20T08:52:54;8.10;;;1.98;;
22240;SDS011;11289;52.524;13.694;2023-12-20T08:55:20;6.05;;;1.50;;
22240;SDS011;11289;52.524;13.694;2023-12-20T08:57:46;11.57;;;2.25;;
22240;SDS011;11289;52.524;13.694;2023-12-20T09:00:12;9.50;;;1.75;;
22240;SDS011;11289;52.524;13.694;2023-12-20T09:02:39;6.15;;;2.05;;
22240;SDS011;11289;52.524;13.694;2023-12-20T09:05:05;5.20;;;1.55;;
22240;SDS011;11289;52.524;13.694;2023-12-20T09:07:31;8.77;;;1.90;;
22240;SDS011;11289;52.524;13.694;2023-12-20T09:09:57;8.63;;;1.77;;
22240;SDS011;11289;52.524;13.694;2023-12-20T09:12:24;5.75;;;1.75;;
22240;SDS011;11289;52.524;13.694;2023-12-20T09:14:51;6.80;;;1.67;;
22240;SDS011;11289;52.524;13.694;2023-12-20T09:17:17;3.83;;;1.60;;
22240;SDS011;11289;52.524;13.694;2023-12-20T09:19:44;8.45;;;2.00;;
22240;SDS011;11289;52.524;13.694;2023-12-20T09:22:10;9.15;;;1.85;;
22240;SDS011;11289;52.524;13.694;2023-12-20T09:24:37;8.27;;;1.90;;
22240;SDS011;11289;52.524;13.694;2023-12-20T09:27:04;9.10;;;1.65;;
22240;SDS011;11289;52.524;13.694;2023-12-20T09:29:31;6.72;;;1.70;;
22240;SDS011;11289;52.524;13.694;2023-12-20T09:31:57;7.10;;;2.03;;
22240;SDS011;11289;52.524;13.694;2023-12-20T09:34:23;13.68;;;1.98;;
22240;SDS011;11289;52.524;13.694;2023-12-20T09:36:51;7.05;;;1.98;;
22240;SDS011;11289;52.524;13.694;2023-12-20T09:39:18;8.00;;;2.58;;
22240;SDS011;11289;52.524;13.694;2023-12-20T09:41:45;8.68;;;2.28;;
22240;SDS011;11289;52.524;13.694;2023-12-20T09:44:15;10.45;;;2.28;;
22240;SDS011;11289;52.524;13.694;2023-12-20T09:46:44;7.65;;;2.13;;
22240;SDS011;11289;52.524;13.694;2023-12-20T09:49:11;14.23;;;2.95;;
22240;SDS011;11289;52.524;13.694;2023-12-20T09:51:38;8.15;;;1.88;;
22240;SDS011;11289;52.524;13.694;2023-12-20T09:54:06;7.82;;;1.63;;
22240;SDS011;11289;52.524;13.694;2023-12-20T09:56:32;9.48;;;2.00;;
22240;SDS011;11289;52.524;13.694;2023-12-20T09:58:59;8.45;;;1.70;;
22240;SDS011;11289;52.524;13.694;2023-12-20T10:01:25;3.47;;;1.25;;
22240;SDS011;11289;52.524;13.694;2023-12-20T10:03:52;7.15;;;1.63;;
22240;SDS011;11289;52.524;13.694;2023-12-20T10:06:21;7.72;;;1.83;;
22240;SDS011;11289;52.524;13.694;2023-12-20T10:08:47;6.22;;;1.60;;
22240;SDS011;11289;52.524;13.694;2023-12-20T10:11:13;5.78;;;1.63;;
22240;SDS011;11289;52.524;13.694;2023-12-20T10:13:40;13.65;;;2.95;;
22240;SDS011;11289;52.524;13.694;2023-12-20T10:16:07;14.23;;;5.65;;
22240;SDS011;11289;52.524;13.694;2023-12-20T10:18:33;5.00;;;2.53;;
22240;SDS011;11289;52.524;13.694;2023-12-20T10:21:00;11.35;;;2.28;;
22240;SDS011;11289;52.524;13.694;2023-12-20T10:23:26;7.03;;;1.75;;
22240;SDS011;11289;52.524;13.694;2023-12-20T10:26:01;6.55;;;2.28;;
22240;SDS011;11289;52.524;13.694;2023-12-20T10:28:28;7.88;;;2.28;;
22240;SDS011;11289;52.524;13.694;2023-12-20T10:30:59;10.45;;;1.60;;
22240;SDS011;11289;52.524;13.694;2023-12-20T10:33:26;8.20;;;1.75;;
22240;SDS011;11289;52.524;13.694;2023-12-20T10:35:54;9.13;;;2.38;;
22240;SDS011;11289;52.524;13.694;2023-12-20T10:38:21;8.18;;;2.67;;
22240;SDS011;11289;52.524;13.694;2023-12-20T10:40:47;6.55;;;2.10;;
22240;SDS011;11289;52.524;13.694;2023-12-20T10:43:14;7.15;;;2.22;;
22240;SDS011;11289;52.524;13.694;2023-12-20T10:45:41;4.63;;;1.75;;
22240;SDS011;11289;52.524;13.694;2023-12-20T10:48:10;8.23;;;2.10;;
22240;SDS011;11289;52.524;13.694;2023-12-20T10:50:37;7.20;;;1.70;;
22240;SDS011;11289;52.524;13.694;2023-12-20T10:53:06;6.10;;;1.67;;
22240;SDS011;11289;52.524;13.694;2023-12-20T10:55:33;7.40;;;1.63;;
22240;SDS011;11289;52.524;13.694;2023-12-20T10:58:08;7.78;;;1.98;;
22240;SDS011;11289;52.524;13.694;2023-12-20T11:00:37;6.63;;;1.73;;
22240;SDS011;11289;52.524;13.694;2023-12-20T11:03:07;10.95;;;2.17;;
22240;SDS011;11289;52.524;13.694;2023-12-20T11:06:00;10.93;;;2.10;;
22240;SDS011;11289;52.524;13.694;2023-12-20T11:08:32;6.35;;;1.80;;
22240;SDS011;11289;52.524;13.694;2023-12-20T11:14:00;8.63;;;2.15;;
22240;SDS011;11289;52.524;13.694;2023-12-20T11:16:31;7.57;;;1.83;;
22240;SDS011;11289;52.524;13.694;2023-12-20T11:18:57;6.85;;;1.52;;
22240;SDS011;11289;52.524;13.694;2023-12-20T11:21:29;9.33;;;2.03;;
22240;SDS011;11289;52.524;13.694;2023-12-20T11:23:55;8.15;;;1.90;;
22240;SDS011;11289;52.524;13.694;2023-12-20T11:26:28;8.27;;;2.42;;
22240;SDS011;11289;52.524;13.694;2023-12-20T11:29:13;6.53;;;1.50;;
22240;SDS011;11289;52.524;13.694;2023-12-20T11:32:01;8.27;;;1.38;;
22240;SDS011;11289;52.524;13.694;2023-12-20T11:34:28;11.70;;;1.88;;
22240;SDS011;11289;52.524;13.694;2023-12-20T11:36:57;9.32;;;1.75;;
22240;SDS011;11289;52.524;13.694;2023-12-20T11:39:25;9.95;;;1.80;;
22240;SDS011;11289;52.524;13.694;2023-12-20T11:41:54;10.20;;;1.75;;
22240;SDS011;11289;52.524;13.694;2023-12-20T11:44:22;7.28;;;1.92;;
22240;SDS011;11289;52.524;13.694;2023-12-20T11:46:47;8.35;;;2.15;;
22240;SDS011;11289;52.524;13.694;2023-12-20T11:49:14;8.25;;;1.80;;
22240;SDS011;11289;52.524;13.694;2023-12-20T11:51:43;10.07;;;1.75;;
22240;SDS011;11289;52.524;13.694;2023-12-20T11:54:09;14.27;;;2.33;;
22240;SDS011;11289;52.524;13.694;2023-12-20T11:56:36;11.00;;;2.03;;
22240;SDS011;11289;52.524;13.694;2023-12-20T11:59:02;5.03;;;1.52;;
22240;SDS011;11289;52.524;13.694;2023-12-20T12:01:28;10.98;;;2.55;;
22240;SDS011;11289;52.524;13.694;2023-12-20T12:04:04;6.30;;;1.73;;
22240;SDS011;11289;52.524;13.694;2023-12-20T12:06:30;7.45;;;1.85;;
22240;SDS011;11289;52.524;13.694;2023-12-20T12:08:56;7.03;;;1.75;;
22240;SDS011;11289;52.524;13.694;2023-12-20T12:11:22;6.85;;;2.00;;
22240;SDS011;11289;52.524;13.694;2023-12-20T12:13:49;7.95;;;2.00;;
22240;SDS011;11289;52.524;13.694;2023-12-20T12:16:18;7.80;;;1.48;;
22240;SDS011;11289;52.524;13.694;2023-12-20T12:18:45;9.20;;;1.75;;
22240;SDS011;11289;52.524;13.694;2023-12-20T12:21:18;8.57;;;1.83;;
22240;SDS011;11289;52.524;13.694;2023-12-20T12:23:46;8.68;;;1.52;;
22240;SDS011;11289;52.524;13.694;2023-12-20T12:26:12;4.40;;;1.27;;
22240;SDS011;11289;52.524;13.694;2023-12-20T12:28:41;9.38;;;1.67;;
22240;SDS011;11289;52.524;13.694;2023-12-20T12:31:08;5.55;;;1.70;;
22240;SDS011;11289;52.524;13.694;2023-12-20T12:33:38;8.30;;;2.13;;
22240;SDS011;11289;52.524;13.694;2023-12-20T12:36:04;10.48;;;2.10;;
22240;SDS011;11289;52.524;13.694;2023-12-20T12:38:32;11.50;;;5.45;;
22240;SDS011;11289;52.524;13.694;2023-12-20T12:40:58;9.20;;;2.72;;
22240;SDS011;11289;52.524;13.694;2023-12-20T12:43:26;6.30;;;1.75;;
22240;SDS011;11289;52.524;13.694;2023-12-20T12:45:52;7.47;;;2.67;;
22240;SDS011;11289;52.524;13.694;2023-12-20T12:48:18;5.40;;;1.83;;
22240;SDS011;11289;52.524;13.694;2023-12-20T12:50:47;7.20;;;1.92;;
22240;SDS011;11289;52.524;13.694;2023-12-20T12:53:13;5.38;;;1.50;;
22240;SDS011;11289;52.524;13.694;2023-12-20T12:55:39;7.80;;;2.33;;
22240;SDS011;11289;52.524;13.694;2023-12-20T12:58:05;8.50;;;1.92;;
22240;SDS011;11289;52.524;13.694;2023-12-20T13:00:31;3.83;;;1.50;;
22240;SDS011;11289;52.524;13.694;2023-12-20T13:02:57;8.15;;;2.00;;
22240;SDS011;11289;52.524;13.694;2023-12-20T13:05:23;8.60;;;1.95;;
22240;SDS011;11289;52.524;13.694;2023-12-20T13:07:49;8.60;;;2.10;;
22240;SDS011;11289;52.524;13.694;2023-12-20T13:10:15;9.55;;;2.30;;
22240;SDS011;11289;52.524;13.694;2023-12-20T13:12:44;4.93;;;2.10;;
22240;SDS011;11289;52.524;13.694;2023-12-20T13:15:10;7.28;;;2.10;;
22240;SDS011;11289;52.524;13.694;2023-12-20T13:17:36;7.25;;;2.13;;
22240;SDS011;11289;52.524;13.694;2023-12-20T13:20:02;13.20;;;4.63;;
22240;SDS011;11289;52.524;13.694;2023-12-20T13:22:29;7.55;;;2.65;;
22240;SDS011;11289;52.524;13.694;2023-12-20T13:24:55;8.88;;;2.42;;
22240;SDS011;11289;52.524;13.694;2023-12-20T13:27:21;5.32;;;2.15;;
22240;SDS011;11289;52.524;13.694;2023-12-20T13:29:47;5.40;;;1.80;;
22240;SDS011;11289;52.524;13.694;2023-12-20T13:32:13;6.32;;;2.17;;
22240;SDS011;11289;52.524;13.694;2023-12-20T13:34:39;8.30;;;2.45;;
22240;SDS011;11289;52.524;13.694;2023-12-20T13:37:04;7.13;;;2.00;;
22240;SDS011;11289;52.524;13.694;2023-12-20T13:39:30;3.42;;;1.77;;
22240;SDS011;11289;52.524;13.694;2023-12-20T13:41:57;4.70;;;1.90;;
22240;SDS011;11289;52.524;13.694;2023-12-20T13:44:23;3.92;;;1.27;;
22240;SDS011;11289;52.524;13.694;2023-12-20T13:46:50;3.00;;;1.00;;
22240;SDS011;11289;52.524;13.694;2023-12-20T13:49:16;3.35;;;0.95;;
22240;SDS011;11289;52.524;13.694;2023-12-20T13:51:41;0.98;;;0.70;;
22240;SDS011;11289;52.524;13.694;2023-12-20T13:54:07;2.75;;;1.00;;
22240;SDS011;11289;52.524;13.694;2023-12-20T13:56:34;1.45;;;1.10;;
22240;SDS011;11289;52.524;13.694;2023-12-20T13:59:00;0.93;;;0.82;;
22240;SDS011;11289;52.524;13.694;2023-12-20T14:01:26;1.73;;;0.80;;
22240;SDS011;11289;52.524;13.694;2023-12-20T14:03:52;1.52;;;0.88;;
22240;SDS011;11289;52.524;13.694;2023-12-20T14:06:18;4.07;;;0.90;;
22240;SDS011;11289;52.524;13.694;2023-12-20T14:08:44;2.70;;;1.35;;
22240;SDS011;11289;52.524;13.694;2023-12-20T14:11:09;3.05;;;0.80;;
22240;SDS011;11289;52.524;13.694;2023-12-20T14:13:36;2.35;;;0.90;;
22240;SDS011;11289;52.524;13.694;2023-12-20T14:16:02;2.22;;;1.00;;
22240;SDS011;11289;52.524;13.694;2023-12-20T14:18:29;0.85;;;0.73;;
22240;SDS011;11289;52.524;13.694;2023-12-20T14:20:56;4.45;;;1.08;;
22240;SDS011;11289;52.524;13.694;2023-12-20T14:23:22;3.25;;;0.90;;
22240;SDS011;11289;52.524;13.694;2023-12-20T14:25:48;3.97;;;1.10;;
22240;SDS011;11289;52.524;13.694;2023-12-20T14:28:15;3.38;;;1.17;;
22240;SDS011;11289;52.524;13.694;2023-12-20T14:30:40;2.15;;;0.93;;
22240;SDS011;11289;52.524;13.694;2023-12-20T14:33:07;3.38;;;1.10;;